sensor_id;sensor_type;location;lat;lon;timestamp;temperature;humidity
51035;DHT22;37062;52.546;13.230;2022-12-10T00:01:42;0.80;99.90
51035;DHT22;37062;52.546;13.230;2022-12-10T00:04:11;0.80;99.90
51035;DHT22;37062;52.546;13.230;2022-12-10T00:06:40;0.90;99.90
51035;DHT22;37062;52.546;13.230;2022-12-10T00:09:13;0.90;99.90
51035;DHT22;37062;52.546;13.230;2022-12-10T00:11:42;0.80;99.90
51035;DHT22;37062;52.546;13.230;2022-12-10T00:14:12;0.90;99.90
51035;DHT22;37062;52.546;13.230;2022-12-10T00:16:41;0.80;99.90
51035;DHT22;37062;52.546;13.230;2022-12-10T00:19:09;0.80;99.90
51035;DHT22;37062;52.546;13.230;2022-12-10T00:21:38;0.80;99.90
51035;DHT22;37062;52.546;13.230;2022-12-10T00:24:07;0.80;99.90
51035;DHT22;37062;52.546;13.230;2022-12-10T00:26:36;0.70;99.90
51035;DHT22;37062;52.546;13.230;2022-12-10T00:29:07;0.80;99.90
51035;DHT22;37062;52.546;13.230;2022-12-10T00:31:37;0.80;99.90
51035;DHT22;37062;52.546;13.230;2022-12-10T00:34:07;0.80;99.90
51035;DHT22;37062;52.546;13.230;2022-12-10T00:36:38;0.80;99.90
51035;DHT22;37062;52.546;13.230;2022-12-10T00:39:06;0.80;99.90
51035;DHT22;37062;52.546;13.230;2022-12-10T00:41:36;0.70;99.90
51035;DHT22;37062;52.546;13.230;2022-12-10T00:44:04;0.80;99.90
51035;DHT22;37062;52.546;13.230;2022-12-10T00:46:33;0.80;99.90
51035;DHT22;37062;52.546;13.230;2022-12-10T00:49:03;0.80;99.90
51035;DHT22;37062;52.546;13.230;2022-12-10T00:51:31;0.80;99.90
51035;DHT22;37062;52.546;13.230;2022-12-10T00:53:59;0.80;99.90
51035;DHT22;37062;52.546;13.230;2022-12-10T00:56:30;0.80;99.90
51035;DHT22;37062;52.546;13.230;2022-12-10T00:58:59;0.80;99.90
51035;DHT22;37062;52.546;13.230;2022-12-10T01:01:30;0.80;99.90
51035;DHT22;37062;52.546;13.230;2022-12-10T01:04:01;0.80;99.90
51035;DHT22;37062;52.546;13.230;2022-12-10T01:06:35;0.80;99.90
51035;DHT22;37062;52.546;13.230;2022-12-10T01:09:06;0.80;99.90
51035;DHT22;37062;52.546;13.230;2022-12-10T01:11:39;0.90;99.90
51035;DHT22;37062;52.546;13.230;2022-12-10T01:14:10;0.80;99.90
51035;DHT22;37062;52.546;13.230;2022-12-10T01:16:39;0.80;99.90
51035;DHT22;37062;52.546;13.230;2022-12-10T01:19:09;0.80;99.90
51035;DHT22;37062;52.546;13.230;2022-12-10T01:21:39;0.80;99.90
51035;DHT22;37062;52.546;13.230;2022-12-10T01:24:08;0.80;99.90
51035;DHT22;37062;52.546;13.230;2022-12-10T01:26:36;0.80;99.90
51035;DHT22;37062;52.546;13.230;2022-12-10T01:29:05;0.80;99.90
51035;DHT22;37062;52.546;13.230;2022-12-10T01:31:36;0.80;99.90
51035;DHT22;37062;52.546;13.230;2022-12-10T01:34:06;0.80;99.90
51035;DHT22;37062;52.546;13.230;2022-12-10T01:36:37;0.70;99.90
51035;DHT22;37062;52.546;13.230;2022-12-10T01:39:08;0.60;99.90
51035;DHT22;37062;52.546;13.230;2022-12-10T01:41:39;0.60;99.90
51035;DHT22;37062;52.546;13.230;2022-12-10T01:47:10;0.60;99.90
51035;DHT22;37062;52.546;13.230;2022-12-10T01:49:40;0.60;99.90
51035;DHT22;37062;52.546;13.230;2022-12-10T01:52:12;0.60;99.90
51035;DHT22;37062;52.546;13.230;2022-12-10T01:54:43;0.60;99.90
51035;DHT22;37062;52.546;13.230;2022-12-10T01:57:15;0.60;99.90
51035;DHT22;37062;52.546;13.230;2022-12-10T01:59:47;0.60;99.90
51035;DHT22;37062;52.546;13.230;2022-12-10T02:02:24;0.50;99.90
51035;DHT22;37062;52.546;13.230;2022-12-10T02:05:07;0.50;99.90
51035;DHT22;37062;52.546;13.230;2022-12-10T02:07:57;0.50;99.90
51035;DHT22;37062;52.546;13.230;2022-12-10T02:10:41;0.50;99.90
51035;DHT22;37062;52.546;13.230;2022-12-10T02:13:17;0.40;99.90
51035;DHT22;37062;52.546;13.230;2022-12-10T02:15:50;0.40;99.90
51035;DHT22;37062;52.546;13.230;2022-12-10T02:18:21;0.50;99.90
51035;DHT22;37062;52.546;13.230;2022-12-10T02:20:54;0.40;99.90
51035;DHT22;37062;52.546;13.230;2022-12-10T02:23:26;0.50;99.90
51035;DHT22;37062;52.546;13.230;2022-12-10T02:26:00;0.50;99.90
51035;DHT22;37062;52.546;13.230;2022-12-10T02:28:36;0.60;99.90
51035;DHT22;37062;52.546;13.230;2022-12-10T02:31:10;0.50;99.90
51035;DHT22;37062;52.546;13.230;2022-12-10T02:33:43;0.50;99.90
51035;DHT22;37062;52.546;13.230;2022-12-10T02:36:13;0.60;99.90
51035;DHT22;37062;52.546;13.230;2022-12-10T02:38:42;0.50;99.90
51035;DHT22;37062;52.546;13.230;2022-12-10T02:41:14;0.60;99.90
51035;DHT22;37062;52.546;13.230;2022-12-10T02:43:45;0.50;99.90
51035;DHT22;37062;52.546;13.230;2022-12-10T02:46:15;0.60;99.90
51035;DHT22;37062;52.546;13.230;2022-12-10T02:48:46;0.60;99.90
51035;DHT22;37062;52.546;13.230;2022-12-10T02:51:15;0.50;99.90
51035;DHT22;37062;52.546;13.230;2022-12-10T02:53:44;0.50;99.90
51035;DHT22;37062;52.546;13.230;2022-12-10T02:56:19;0.40;99.90
51035;DHT22;37062;52.546;13.230;2022-12-10T02:58:57;0.40;99.90
51035;DHT22;37062;52.546;13.230;2022-12-10T03:01:38;0.30;99.90
51035;DHT22;37062;52.546;13.230;2022-12-10T03:04:14;0.20;99.90
51035;DHT22;37062;52.546;13.230;2022-12-10T03:06:50;0.20;99.90
51035;DHT22;37062;52.546;13.230;2022-12-10T03:09:22;0.20;99.90
51035;DHT22;37062;52.546;13.230;2022-12-10T03:11:58;0.20;99.90
51035;DHT22;37062;52.546;13.230;2022-12-10T03:14:29;0.20;99.90
51035;DHT22;37062;52.546;13.230;2022-12-10T03:17:01;0.20;99.90
51035;DHT22;37062;52.546;13.230;2022-12-10T03:19:34;0.10;99.90
51035;DHT22;37062;52.546;13.230;2022-12-10T03:22:05;0.10;99.90
51035;DHT22;37062;52.546;13.230;2022-12-10T03:24:35;0.10;99.90
51035;DHT22;37062;52.546;13.230;2022-12-10T03:27:04;0.10;99.90
51035;DHT22;37062;52.546;13.230;2022-12-10T03:29:36;0.20;99.90
51035;DHT22;37062;52.546;13.230;2022-12-10T03:32:07;0.30;99.90
51035;DHT22;37062;52.546;13.230;2022-12-10T03:34:36;0.30;99.90
51035;DHT22;37062;52.546;13.230;2022-12-10T03:37:06;0.30;99.90
51035;DHT22;37062;52.546;13.230;2022-12-10T03:39:34;0.30;99.90
51035;DHT22;37062;52.546;13.230;2022-12-10T03:42:04;0.30;99.90
51035;DHT22;37062;52.546;13.230;2022-12-10T03:44:34;0.30;99.90
51035;DHT22;37062;52.546;13.230;2022-12-10T03:47:05;0.30;99.90
51035;DHT22;37062;52.546;13.230;2022-12-10T03:49:36;0.20;99.90
51035;DHT22;37062;52.546;13.230;2022-12-10T03:52:04;0.30;99.90
51035;DHT22;37062;52.546;13.230;2022-12-10T03:54:32;0.30;99.90
51035;DHT22;37062;52.546;13.230;2022-12-10T03:57:00;0.30;99.90
51035;DHT22;37062;52.546;13.230;2022-12-10T03:59:29;0.20;99.90
51035;DHT22;37062;52.546;13.230;2022-12-10T04:01:57;0.30;99.90
51035;DHT22;37062;52.546;13.230;2022-12-10T04:04:25;0.30;99.90
51035;DHT22;37062;52.546;13.230;2022-12-10T04:06:55;0.40;99.90
51035;DHT22;37062;52.546;13.230;2022-12-10T04:09:23;0.40;99.90
51035;DHT22;37062;52.546;13.230;2022-12-10T04:11:55;0.40;99.90
51035;DHT22;37062;52.546;13.230;2022-12-10T04:14:24;0.60;99.90
51035;DHT22;37062;52.546;13.230;2022-12-10T04:17:10;0.70;99.90
51035;DHT22;37062;52.546;13.230;2022-12-10T04:19:38;0.80;99.90
51035;DHT22;37062;52.546;13.230;2022-12-10T04:22:09;0.90;99.90
51035;DHT22;37062;52.546;13.230;2022-12-10T04:24:55;1.00;99.90
51035;DHT22;37062;52.546;13.230;2022-12-10T04:27:41;1.10;99.90
51035;DHT22;37062;52.546;13.230;2022-12-10T04:30:11;1.20;99.90
51035;DHT22;37062;52.546;13.230;2022-12-10T04:32:39;1.30;99.90
51035;DHT22;37062;52.546;13.230;2022-12-10T04:35:08;1.30;99.90
51035;DHT22;37062;52.546;13.230;2022-12-10T04:37:38;1.30;99.90
51035;DHT22;37062;52.546;13.230;2022-12-10T04:40:07;1.40;99.90
51035;DHT22;37062;52.546;13.230;2022-12-10T04:42:36;1.40;99.90
51035;DHT22;37062;52.546;13.230;2022-12-10T04:45:05;1.40;99.90
51035;DHT22;37062;52.546;13.230;2022-12-10T04:47:33;1.30;99.90
51035;DHT22;37062;52.546;13.230;2022-12-10T04:50:02;1.30;99.90
51035;DHT22;37062;52.546;13.230;2022-12-10T04:52:30;1.40;99.90
51035;DHT22;37062;52.546;13.230;2022-12-10T04:54:59;1.50;99.90
51035;DHT22;37062;52.546;13.230;2022-12-10T04:57:27;1.60;99.90
51035;DHT22;37062;52.546;13.230;2022-12-10T04:59:55;1.70;99.90
51035;DHT22;37062;52.546;13.230;2022-12-10T05:02:23;1.70;99.90
51035;DHT22;37062;52.546;13.230;2022-12-10T05:04:52;1.80;99.90
51035;DHT22;37062;52.546;13.230;2022-12-10T05:07:21;1.80;99.90
51035;DHT22;37062;52.546;13.230;2022-12-10T05:09:49;1.80;99.90
51035;DHT22;37062;52.546;13.230;2022-12-10T05:12:19;1.80;99.90
51035;DHT22;37062;52.546;13.230;2022-12-10T05:14:47;1.90;99.90
51035;DHT22;37062;52.546;13.230;2022-12-10T05:17:15;1.90;99.90
51035;DHT22;37062;52.546;13.230;2022-12-10T05:19:43;1.90;99.90
51035;DHT22;37062;52.546;13.230;2022-12-10T05:22:12;1.90;99.90
51035;DHT22;37062;52.546;13.230;2022-12-10T05:24:57;2.00;99.90
51035;DHT22;37062;52.546;13.230;2022-12-10T05:27:31;2.00;99.90
51035;DHT22;37062;52.546;13.230;2022-12-10T05:29:59;1.90;99.90
51035;DHT22;37062;52.546;13.230;2022-12-10T05:32:27;1.90;99.90
51035;DHT22;37062;52.546;13.230;2022-12-10T05:34:56;1.80;99.90
51035;DHT22;37062;52.546;13.230;2022-12-10T05:37:24;1.70;99.90
51035;DHT22;37062;52.546;13.230;2022-12-10T05:39:52;1.70;99.90
51035;DHT22;37062;52.546;13.230;2022-12-10T05:42:21;1.70;99.90
51035;DHT22;37062;52.546;13.230;2022-12-10T05:44:50;1.70;99.90
51035;DHT22;37062;52.546;13.230;2022-12-10T05:47:18;1.70;99.90
51035;DHT22;37062;52.546;13.230;2022-12-10T05:49:46;1.60;99.90
51035;DHT22;37062;52.546;13.230;2022-12-10T05:52:18;1.60;99.90
51035;DHT22;37062;52.546;13.230;2022-12-10T05:54:46;1.50;99.90
51035;DHT22;37062;52.546;13.230;2022-12-10T05:57:14;1.50;99.90
51035;DHT22;37062;52.546;13.230;2022-12-10T05:59:42;1.40;99.90
51035;DHT22;37062;52.546;13.230;2022-12-10T06:02:12;1.40;99.90
51035;DHT22;37062;52.546;13.230;2022-12-10T06:04:40;1.40;99.90
51035;DHT22;37062;52.546;13.230;2022-12-10T06:07:10;1.30;99.90
51035;DHT22;37062;52.546;13.230;2022-12-10T06:09:38;1.30;99.90
51035;DHT22;37062;52.546;13.230;2022-12-10T06:12:06;1.20;99.90
51035;DHT22;37062;52.546;13.230;2022-12-10T06:14:34;1.30;99.90
51035;DHT22;37062;52.546;13.230;2022-12-10T06:17:02;1.30;99.90
51035;DHT22;37062;52.546;13.230;2022-12-10T06:19:32;1.30;99.90
51035;DHT22;37062;52.546;13.230;2022-12-10T06:22:00;1.20;99.90
51035;DHT22;37062;52.546;13.230;2022-12-10T06:24:29;1.10;99.90
51035;DHT22;37062;52.546;13.230;2022-12-10T06:26:57;1.10;99.90
51035;DHT22;37062;52.546;13.230;2022-12-10T06:29:25;1.20;99.90
51035;DHT22;37062;52.546;13.230;2022-12-10T06:31:53;1.10;99.90
51035;DHT22;37062;52.546;13.230;2022-12-10T06:34:22;1.10;99.90
51035;DHT22;37062;52.546;13.230;2022-12-10T06:36:51;1.20;99.90
51035;DHT22;37062;52.546;13.230;2022-12-10T06:39:19;1.20;99.90
51035;DHT22;37062;52.546;13.230;2022-12-10T06:41:48;1.10;99.90
51035;DHT22;37062;52.546;13.230;2022-12-10T06:44:22;1.10;99.90
51035;DHT22;37062;52.546;13.230;2022-12-10T06:46:50;1.00;99.90
51035;DHT22;37062;52.546;13.230;2022-12-10T06:49:18;1.00;99.90
51035;DHT22;37062;52.546;13.230;2022-12-10T06:51:47;1.00;99.90
51035;DHT22;37062;52.546;13.230;2022-12-10T06:54:17;1.00;99.90
51035;DHT22;37062;52.546;13.230;2022-12-10T06:56:45;1.00;99.90
51035;DHT22;37062;52.546;13.230;2022-12-10T06:59:13;1.00;99.90
51035;DHT22;37062;52.546;13.230;2022-12-10T07:01:41;1.00;99.90
51035;DHT22;37062;52.546;13.230;2022-12-10T07:04:10;1.10;99.90
51035;DHT22;37062;52.546;13.230;2022-12-10T07:06:38;1.10;99.90
51035;DHT22;37062;52.546;13.230;2022-12-10T07:09:06;1.00;99.90
51035;DHT22;37062;52.546;13.230;2022-12-10T07:11:37;0.90;99.90
51035;DHT22;37062;52.546;13.230;2022-12-10T07:14:06;0.90;99.90
51035;DHT22;37062;52.546;13.230;2022-12-10T07:16:34;0.90;99.90
51035;DHT22;37062;52.546;13.230;2022-12-10T07:19:02;0.90;99.90
51035;DHT22;37062;52.546;13.230;2022-12-10T07:21:32;0.90;99.90
51035;DHT22;37062;52.546;13.230;2022-12-10T07:24:02;0.90;99.90
51035;DHT22;37062;52.546;13.230;2022-12-10T07:26:32;0.90;99.90
51035;DHT22;37062;52.546;13.230;2022-12-10T07:29:04;0.90;99.90
51035;DHT22;37062;52.546;13.230;2022-12-10T07:31:33;1.00;99.90
51035;DHT22;37062;52.546;13.230;2022-12-10T07:34:02;0.90;99.90
51035;DHT22;37062;52.546;13.230;2022-12-10T07:36:30;0.90;99.90
51035;DHT22;37062;52.546;13.230;2022-12-10T07:38:58;0.90;99.90
51035;DHT22;37062;52.546;13.230;2022-12-10T07:41:26;0.90;99.90
51035;DHT22;37062;52.546;13.230;2022-12-10T07:43:57;0.90;99.90
51035;DHT22;37062;52.546;13.230;2022-12-10T07:46:29;0.90;99.90
51035;DHT22;37062;52.546;13.230;2022-12-10T07:49:00;0.90;99.90
51035;DHT22;37062;52.546;13.230;2022-12-10T07:51:28;0.90;99.90
51035;DHT22;37062;52.546;13.230;2022-12-10T07:53:57;0.90;99.90
51035;DHT22;37062;52.546;13.230;2022-12-10T07:56:25;0.90;99.90
51035;DHT22;37062;52.546;13.230;2022-12-10T07:58:53;0.90;99.90
51035;DHT22;37062;52.546;13.230;2022-12-10T08:01:22;0.90;99.90
51035;DHT22;37062;52.546;13.230;2022-12-10T08:03:54;0.90;99.90
51035;DHT22;37062;52.546;13.230;2022-12-10T08:06:25;0.90;99.90
51035;DHT22;37062;52.546;13.230;2022-12-10T08:08:54;0.90;99.90
51035;DHT22;37062;52.546;13.230;2022-12-10T08:11:22;0.90;99.90
51035;DHT22;37062;52.546;13.230;2022-12-10T08:13:50;1.00;99.90
51035;DHT22;37062;52.546;13.230;2022-12-10T08:16:25;1.00;99.90
51035;DHT22;37062;52.546;13.230;2022-12-10T08:18:56;1.00;99.90
51035;DHT22;37062;52.546;13.230;2022-12-10T08:21:26;1.00;99.90
51035;DHT22;37062;52.546;13.230;2022-12-10T08:23:55;1.10;99.90
51035;DHT22;37062;52.546;13.230;2022-12-10T08:26:26;1.10;99.90
51035;DHT22;37062;52.546;13.230;2022-12-10T08:28:55;1.10;99.90
51035;DHT22;37062;52.546;13.230;2022-12-10T08:31:25;1.10;99.90
51035;DHT22;37062;52.546;13.230;2022-12-10T08:34:02;1.10;99.90
51035;DHT22;37062;52.546;13.230;2022-12-10T08:36:31;1.00;99.90
51035;DHT22;37062;52.546;13.230;2022-12-10T08:38:59;1.00;99.90
51035;DHT22;37062;52.546;13.230;2022-12-10T08:41:27;1.00;99.90
51035;DHT22;37062;52.546;13.230;2022-12-10T08:43:56;1.10;99.90
51035;DHT22;37062;52.546;13.230;2022-12-10T08:46:24;1.10;99.90
51035;DHT22;37062;52.546;13.230;2022-12-10T08:48:57;1.10;99.90
51035;DHT22;37062;52.546;13.230;2022-12-10T08:51:27;1.10;99.90
51035;DHT22;37062;52.546;13.230;2022-12-10T08:53:56;1.10;99.90
51035;DHT22;37062;52.546;13.230;2022-12-10T08:56:24;1.10;99.90
51035;DHT22;37062;52.546;13.230;2022-12-10T08:58:53;1.10;99.90
51035;DHT22;37062;52.546;13.230;2022-12-10T09:01:21;1.10;99.90
51035;DHT22;37062;52.546;13.230;2022-12-10T09:03:49;1.20;99.90
51035;DHT22;37062;52.546;13.230;2022-12-10T09:06:20;1.30;99.90
51035;DHT22;37062;52.546;13.230;2022-12-10T09:08:50;1.40;99.90
51035;DHT22;37062;52.546;13.230;2022-12-10T09:11:20;1.40;99.90
51035;DHT22;37062;52.546;13.230;2022-12-10T09:13:49;1.40;99.90
51035;DHT22;37062;52.546;13.230;2022-12-10T09:16:18;1.30;99.90
51035;DHT22;37062;52.546;13.230;2022-12-10T09:18:46;1.30;99.90
51035;DHT22;37062;52.546;13.230;2022-12-10T09:21:16;1.20;99.90
51035;DHT22;37062;52.546;13.230;2022-12-10T09:23:45;1.20;99.90
51035;DHT22;37062;52.546;13.230;2022-12-10T09:26:15;1.20;99.90
51035;DHT22;37062;52.546;13.230;2022-12-10T09:28:44;1.20;99.90
51035;DHT22;37062;52.546;13.230;2022-12-10T09:31:14;1.30;99.90
51035;DHT22;37062;52.546;13.230;2022-12-10T09:33:46;1.30;99.90
51035;DHT22;37062;52.546;13.230;2022-12-10T09:36:15;1.30;99.90
51035;DHT22;37062;52.546;13.230;2022-12-10T09:38:44;1.30;99.90
51035;DHT22;37062;52.546;13.230;2022-12-10T09:41:29;1.50;99.90
51035;DHT22;37062;52.546;13.230;2022-12-10T09:44:03;1.50;99.90
51035;DHT22;37062;52.546;13.230;2022-12-10T09:46:44;1.50;99.90
51035;DHT22;37062;52.546;13.230;2022-12-10T09:49:20;1.50;99.90
51035;DHT22;37062;52.546;13.230;2022-12-10T09:51:54;1.30;99.90
51035;DHT22;37062;52.546;13.230;2022-12-10T09:54:25;1.30;99.90
51035;DHT22;37062;52.546;13.230;2022-12-10T09:56:57;1.30;99.90
51035;DHT22;37062;52.546;13.230;2022-12-10T09:59:30;1.30;99.90
51035;DHT22;37062;52.546;13.230;2022-12-10T10:02:13;1.40;99.90
51035;DHT22;37062;52.546;13.230;2022-12-10T10:04:46;1.40;99.90
51035;DHT22;37062;52.546;13.230;2022-12-10T10:07:19;1.40;99.90
51035;DHT22;37062;52.546;13.230;2022-12-10T10:09:49;1.40;99.90
51035;DHT22;37062;52.546;13.230;2022-12-10T10:12:19;1.40;99.90
51035;DHT22;37062;52.546;13.230;2022-12-10T10:14:47;1.40;99.90
51035;DHT22;37062;52.546;13.230;2022-12-10T10:17:20;1.60;99.90
51035;DHT22;37062;52.546;13.230;2022-12-10T10:19:58;1.60;99.90
51035;DHT22;37062;52.546;13.230;2022-12-10T10:22:27;1.60;99.90
51035;DHT22;37062;52.546;13.230;2022-12-10T10:24:55;1.60;99.90
51035;DHT22;37062;52.546;13.230;2022-12-10T10:27:27;1.70;99.90
51035;DHT22;37062;52.546;13.230;2022-12-10T10:29:58;1.80;99.90
51035;DHT22;37062;52.546;13.230;2022-12-10T10:32:44;1.90;99.90
51035;DHT22;37062;52.546;13.230;2022-12-10T10:35:25;1.90;99.90
51035;DHT22;37062;52.546;13.230;2022-12-10T10:38:00;1.80;99.90
51035;DHT22;37062;52.546;13.230;2022-12-10T10:40:32;1.80;99.90
51035;DHT22;37062;52.546;13.230;2022-12-10T10:43:02;1.80;99.90
51035;DHT22;37062;52.546;13.230;2022-12-10T10:45:39;1.70;99.90
51035;DHT22;37062;52.546;13.230;2022-12-10T10:48:11;1.70;99.90
51035;DHT22;37062;52.546;13.230;2022-12-10T10:50:42;1.70;99.90
51035;DHT22;37062;52.546;13.230;2022-12-10T10:53:32;1.80;99.90
51035;DHT22;37062;52.546;13.230;2022-12-10T10:56:09;1.80;99.90
51035;DHT22;37062;52.546;13.230;2022-12-10T10:58:49;1.80;99.90
51035;DHT22;37062;52.546;13.230;2022-12-10T11:01:18;1.80;99.90
51035;DHT22;37062;52.546;13.230;2022-12-10T11:03:48;1.70;99.90
51035;DHT22;37062;52.546;13.230;2022-12-10T11:06:18;1.80;99.90
51035;DHT22;37062;52.546;13.230;2022-12-10T11:08:47;1.90;99.90
51035;DHT22;37062;52.546;13.230;2022-12-10T11:11:19;1.90;99.90
51035;DHT22;37062;52.546;13.230;2022-12-10T11:13:49;1.90;99.90
51035;DHT22;37062;52.546;13.230;2022-12-10T11:16:20;1.80;99.90
51035;DHT22;37062;52.546;13.230;2022-12-10T11:18:54;1.60;99.90
51035;DHT22;37062;52.546;13.230;2022-12-10T11:21:23;1.60;99.90
51035;DHT22;37062;52.546;13.230;2022-12-10T11:23:53;1.60;99.90
51035;DHT22;37062;52.546;13.230;2022-12-10T11:26:37;1.70;99.90
51035;DHT22;37062;52.546;13.230;2022-12-10T11:29:22;1.80;99.90
51035;DHT22;37062;52.546;13.230;2022-12-10T11:32:05;1.50;99.90
51035;DHT22;37062;52.546;13.230;2022-12-10T11:34:51;1.60;99.90
51035;DHT22;37062;52.546;13.230;2022-12-10T11:37:31;1.70;99.90
51035;DHT22;37062;52.546;13.230;2022-12-10T11:40:23;1.80;99.90
51035;DHT22;37062;52.546;13.230;2022-12-10T11:43:04;1.80;99.90
51035;DHT22;37062;52.546;13.230;2022-12-10T11:45:46;1.90;99.90
51035;DHT22;37062;52.546;13.230;2022-12-10T11:48:24;2.00;99.90
51035;DHT22;37062;52.546;13.230;2022-12-10T11:50:59;2.00;99.90
51035;DHT22;37062;52.546;13.230;2022-12-10T11:53:45;2.00;99.90
51035;DHT22;37062;52.546;13.230;2022-12-10T11:56:22;1.90;99.90
51035;DHT22;37062;52.546;13.230;2022-12-10T11:59:02;1.70;99.90
51035;DHT22;37062;52.546;13.230;2022-12-10T12:01:46;1.70;99.90
51035;DHT22;37062;52.546;13.230;2022-12-10T12:04:39;1.60;99.90
51035;DHT22;37062;52.546;13.230;2022-12-10T12:10:41;1.70;99.90
51035;DHT22;37062;52.546;13.230;2022-12-10T12:13:24;1.90;99.90
51035;DHT22;37062;52.546;13.230;2022-12-10T12:15:57;1.90;99.90
51035;DHT22;37062;52.546;13.230;2022-12-10T12:18:36;1.90;99.90
51035;DHT22;37062;52.546;13.230;2022-12-10T12:21:10;2.00;99.90
51035;DHT22;37062;52.546;13.230;2022-12-10T12:23:46;2.00;99.90
51035;DHT22;37062;52.546;13.230;2022-12-10T12:26:20;2.00;99.90
51035;DHT22;37062;52.546;13.230;2022-12-10T12:28:53;2.00;99.90
51035;DHT22;37062;52.546;13.230;2022-12-10T12:31:29;1.90;99.90
51035;DHT22;37062;52.546;13.230;2022-12-10T12:34:05;1.90;99.90
51035;DHT22;37062;52.546;13.230;2022-12-10T12:36:38;1.90;99.90
51035;DHT22;37062;52.546;13.230;2022-12-10T12:39:14;1.90;99.90
51035;DHT22;37062;52.546;13.230;2022-12-10T12:41:50;1.80;99.90
51035;DHT22;37062;52.546;13.230;2022-12-10T12:44:31;1.90;99.90
51035;DHT22;37062;52.546;13.230;2022-12-10T12:47:11;1.80;99.90
51035;DHT22;37062;52.546;13.230;2022-12-10T12:49:45;1.80;99.90
51035;DHT22;37062;52.546;13.230;2022-12-10T12:52:26;1.80;99.90
51035;DHT22;37062;52.546;13.230;2022-12-10T12:54:58;1.90;99.90
51035;DHT22;37062;52.546;13.230;2022-12-10T12:57:33;1.80;99.90
51035;DHT22;37062;52.546;13.230;2022-12-10T13:00:08;1.80;99.90
51035;DHT22;37062;52.546;13.230;2022-12-10T13:02:54;1.90;99.90
51035;DHT22;37062;52.546;13.230;2022-12-10T13:05:28;2.00;99.90
51035;DHT22;37062;52.546;13.230;2022-12-10T13:08:23;2.00;99.90
51035;DHT22;37062;52.546;13.230;2022-12-10T13:10:59;2.00;99.90
51035;DHT22;37062;52.546;13.230;2022-12-10T13:13:31;1.90;99.90
51035;DHT22;37062;52.546;13.230;2022-12-10T13:19:25;1.80;99.90
51035;DHT22;37062;52.546;13.230;2022-12-10T13:22:05;1.80;99.90
51035;DHT22;37062;52.546;13.230;2022-12-10T13:27:41;1.80;99.90
51035;DHT22;37062;52.546;13.230;2022-12-10T13:30:33;1.80;99.90
51035;DHT22;37062;52.546;13.230;2022-12-10T13:33:13;1.80;99.90
51035;DHT22;37062;52.546;13.230;2022-12-10T13:35:57;1.80;99.90
51035;DHT22;37062;52.546;13.230;2022-12-10T13:38:40;1.80;99.90
51035;DHT22;37062;52.546;13.230;2022-12-10T13:41:10;1.80;99.90
51035;DHT22;37062;52.546;13.230;2022-12-10T13:43:57;1.80;99.90
51035;DHT22;37062;52.546;13.230;2022-12-10T13:46:56;1.90;99.90
51035;DHT22;37062;52.546;13.230;2022-12-10T13:49:26;1.90;99.90
51035;DHT22;37062;52.546;13.230;2022-12-10T13:51:58;1.90;99.90
51035;DHT22;37062;52.546;13.230;2022-12-10T13:57:28;1.80;99.90
51035;DHT22;37062;52.546;13.230;2022-12-10T14:00:06;1.90;99.90
51035;DHT22;37062;52.546;13.230;2022-12-10T14:02:53;2.00;99.90
51035;DHT22;37062;52.546;13.230;2022-12-10T14:05:37;2.10;99.90
51035;DHT22;37062;52.546;13.230;2022-12-10T14:08:13;2.10;99.90
51035;DHT22;37062;52.546;13.230;2022-12-10T14:10:45;2.10;99.90
51035;DHT22;37062;52.546;13.230;2022-12-10T14:13:16;2.10;99.90
51035;DHT22;37062;52.546;13.230;2022-12-10T14:15:52;2.20;99.90
51035;DHT22;37062;52.546;13.230;2022-12-10T14:18:21;2.20;99.90
51035;DHT22;37062;52.546;13.230;2022-12-10T14:20:52;2.20;99.90
51035;DHT22;37062;52.546;13.230;2022-12-10T14:23:24;2.30;99.90
51035;DHT22;37062;52.546;13.230;2022-12-10T14:26:13;2.30;99.90
51035;DHT22;37062;52.546;13.230;2022-12-10T14:28:43;2.40;99.90
51035;DHT22;37062;52.546;13.230;2022-12-10T14:31:16;2.30;99.90
51035;DHT22;37062;52.546;13.230;2022-12-10T14:33:46;2.20;99.90
51035;DHT22;37062;52.546;13.230;2022-12-10T14:36:17;2.20;99.90
51035;DHT22;37062;52.546;13.230;2022-12-10T14:38:48;2.10;99.90
51035;DHT22;37062;52.546;13.230;2022-12-10T14:41:20;2.10;99.90
51035;DHT22;37062;52.546;13.230;2022-12-10T14:43:51;2.30;99.90
51035;DHT22;37062;52.546;13.230;2022-12-10T14:46:22;2.30;99.90
51035;DHT22;37062;52.546;13.230;2022-12-10T14:48:52;2.30;99.90
51035;DHT22;37062;52.546;13.230;2022-12-10T14:51:23;2.30;99.90
51035;DHT22;37062;52.546;13.230;2022-12-10T14:53:53;2.10;99.90
51035;DHT22;37062;52.546;13.230;2022-12-10T14:56:26;2.10;99.90
51035;DHT22;37062;52.546;13.230;2022-12-10T14:58:59;2.00;99.90
51035;DHT22;37062;52.546;13.230;2022-12-10T15:01:30;2.00;99.90
51035;DHT22;37062;52.546;13.230;2022-12-10T15:04:02;2.00;99.90
51035;DHT22;37062;52.546;13.230;2022-12-10T15:06:34;2.00;99.90
51035;DHT22;37062;52.546;13.230;2022-12-10T15:09:03;1.90;99.90
51035;DHT22;37062;52.546;13.230;2022-12-10T15:11:34;1.90;99.90
51035;DHT22;37062;52.546;13.230;2022-12-10T15:14:03;1.80;99.90
51035;DHT22;37062;52.546;13.230;2022-12-10T15:16:38;1.90;99.90
51035;DHT22;37062;52.546;13.230;2022-12-10T15:19:19;1.90;99.90
51035;DHT22;37062;52.546;13.230;2022-12-10T15:21:49;1.90;99.90
51035;DHT22;37062;52.546;13.230;2022-12-10T15:24:20;1.90;99.90
51035;DHT22;37062;52.546;13.230;2022-12-10T15:26:50;1.90;99.90
51035;DHT22;37062;52.546;13.230;2022-12-10T15:29:33;1.90;99.90
51035;DHT22;37062;52.546;13.230;2022-12-10T15:32:08;1.80;99.90
51035;DHT22;37062;52.546;13.230;2022-12-10T15:34:42;1.70;99.90
51035;DHT22;37062;52.546;13.230;2022-12-10T15:37:23;1.70;99.90
51035;DHT22;37062;52.546;13.230;2022-12-10T15:39:53;1.70;99.90
51035;DHT22;37062;52.546;13.230;2022-12-10T15:42:36;1.80;99.90
51035;DHT22;37062;52.546;13.230;2022-12-10T15:45:19;1.80;99.90
51035;DHT22;37062;52.546;13.230;2022-12-10T15:47:48;1.70;99.90
51035;DHT22;37062;52.546;13.230;2022-12-10T15:50:17;1.70;99.90
51035;DHT22;37062;52.546;13.230;2022-12-10T15:52:45;1.60;99.90
51035;DHT22;37062;52.546;13.230;2022-12-10T15:55:14;1.60;99.90
51035;DHT22;37062;52.546;13.230;2022-12-10T15:57:44;1.60;99.90
51035;DHT22;37062;52.546;13.230;2022-12-10T16:00:18;1.70;99.90
51035;DHT22;37062;52.546;13.230;2022-12-10T16:02:49;1.60;99.90
51035;DHT22;37062;52.546;13.230;2022-12-10T16:05:20;1.60;99.90
51035;DHT22;37062;52.546;13.230;2022-12-10T16:07:53;1.60;99.90
51035;DHT22;37062;52.546;13.230;2022-12-10T16:10:23;1.60;99.90
51035;DHT22;37062;52.546;13.230;2022-12-10T16:12:58;1.60;99.90
51035;DHT22;37062;52.546;13.230;2022-12-10T16:15:30;1.60;99.90
51035;DHT22;37062;52.546;13.230;2022-12-10T16:18:02;1.60;99.90